sensor_id;sensor_type;location;lat;lon;timestamp;pressure;altitude;pressure_sealevel;temperature;humidity
16461;BME280;8341;42.048;24.650;2023-10-08T00:00:25;97526.09;;;18.09;36.66
16461;BME280;8341;42.048;24.650;2023-10-08T00:03:12;97522.31;;;18.12;35.98
16461;BME280;8341;42.048;24.650;2023-10-08T00:05:39;97516.81;;;18.12;36.45
16461;BME280;8341;42.048;24.650;2023-10-08T00:08:06;97520.28;;;18.13;36.31
16461;BME280;8341;42.048;24.650;2023-10-08T00:10:39;97504.47;;;18.13;36.27
16461;BME280;8341;42.048;24.650;2023-10-08T00:13:06;97503.72;;;18.13;36.70
16461;BME280;8341;42.048;24.650;2023-10-08T00:15:35;97500.25;;;18.12;36.19
16461;BME280;8341;42.048;24.650;2023-10-08T00:18:03;97495.84;;;17.98;36.73
16461;BME280;8341;42.048;24.650;2023-10-08T00:20:31;97493.00;;;18.09;36.65
16461;BME280;8341;42.048;24.650;2023-10-08T00:23:01;97487.91;;;18.13;36.48
16461;BME280;8341;42.048;24.650;2023-10-08T00:25:33;97491.97;;;18.12;36.54
16461;BME280;8341;42.048;24.650;2023-10-08T00:28:08;97480.50;;;18.03;36.62
16461;BME280;8341;42.048;24.650;2023-10-08T00:30:39;97485.50;;;18.04;37.34
16461;BME280;8341;42.048;24.650;2023-10-08T00:33:07;97486.75;;;18.03;36.91
16461;BME280;8341;42.048;24.650;2023-10-08T00:35:37;97479.69;;;18.08;36.91
16461;BME280;8341;42.048;24.650;2023-10-08T00:38:04;97477.00;;;18.02;37.27
16461;BME280;8341;42.048;24.650;2023-10-08T00:40:36;97472.84;;;17.90;37.32
16461;BME280;8341;42.048;24.650;2023-10-08T00:43:04;97457.69;;;17.73;37.63
16461;BME280;8341;42.048;24.650;2023-10-08T00:45:37;97464.59;;;17.85;37.61
16461;BME280;8341;42.048;24.650;2023-10-08T00:48:11;97467.13;;;17.83;37.78
16461;BME280;8341;42.048;24.650;2023-10-08T00:50:42;97471.59;;;17.91;37.25
16461;BME280;8341;42.048;24.650;2023-10-08T00:53:09;97465.31;;;17.91;37.22
16461;BME280;8341;42.048;24.650;2023-10-08T00:55:42;97474.56;;;17.93;37.53
16461;BME280;8341;42.048;24.650;2023-10-08T00:58:19;97471.09;;;17.87;37.67
16461;BME280;8341;42.048;24.650;2023-10-08T01:00:52;97469.84;;;17.88;37.68
16461;BME280;8341;42.048;24.650;2023-10-08T01:03:25;97465.59;;;17.87;37.59
16461;BME280;8341;42.048;24.650;2023-10-08T01:05:53;97469.28;;;17.95;37.44
16461;BME280;8341;42.048;24.650;2023-10-08T01:08:20;97472.84;;;17.90;37.75
16461;BME280;8341;42.048;24.650;2023-10-08T01:11:16;97467.09;;;17.88;37.83
16461;BME280;8341;42.048;24.650;2023-10-08T01:13:43;97468.59;;;17.89;37.81
16461;BME280;8341;42.048;24.650;2023-10-08T01:16:13;97472.19;;;17.79;38.00
16461;BME280;8341;42.048;24.650;2023-10-08T01:18:40;97461.22;;;17.73;38.30
16461;BME280;8341;42.048;24.650;2023-10-08T01:21:16;97457.19;;;17.74;38.19
16461;BME280;8341;42.048;24.650;2023-10-08T01:24:01;97471.22;;;17.76;38.33
16461;BME280;8341;42.048;24.650;2023-10-08T01:26:31;97447.66;;;17.75;38.25
16461;BME280;8341;42.048;24.650;2023-10-08T01:28:59;97455.41;;;17.77;38.23
16461;BME280;8341;42.048;24.650;2023-10-08T01:31:32;97451.69;;;17.74;38.16
16461;BME280;8341;42.048;24.650;2023-10-08T01:33:58;97446.38;;;17.76;38.22
16461;BME280;8341;42.048;24.650;2023-10-08T01:36:30;97449.59;;;17.80;37.93
16461;BME280;8341;42.048;24.650;2023-10-08T01:38:57;97444.88;;;17.75;38.42
16461;BME280;8341;42.048;24.650;2023-10-08T01:41:28;97448.22;;;17.68;38.65
16461;BME280;8341;42.048;24.650;2023-10-08T01:43:56;97446.63;;;17.78;38.38
16461;BME280;8341;42.048;24.650;2023-10-08T01:46:24;97442.13;;;17.75;38.26
16461;BME280;8341;42.048;24.650;2023-10-08T01:48:52;97451.91;;;17.76;38.12
16461;BME280;8341;42.048;24.650;2023-10-08T01:51:26;97445.41;;;17.74;38.27
16461;BME280;8341;42.048;24.650;2023-10-08T01:54:03;97438.13;;;17.76;38.08
16461;BME280;8341;42.048;24.650;2023-10-08T01:56:38;97434.94;;;17.67;38.37
16461;BME280;8341;42.048;24.650;2023-10-08T01:59:07;97433.94;;;17.64;38.06
16461;BME280;8341;42.048;24.650;2023-10-08T02:01:35;97428.94;;;17.63;38.34
16461;BME280;8341;42.048;24.650;2023-10-08T02:04:04;97428.91;;;17.68;38.13
16461;BME280;8341;42.048;24.650;2023-10-08T02:06:32;97429.94;;;17.65;38.37
16461;BME280;8341;42.048;24.650;2023-10-08T02:08:59;97433.16;;;17.69;37.76
16461;BME280;8341;42.048;24.650;2023-10-08T02:11:31;97438.03;;;17.58;37.86
16461;BME280;8341;42.048;24.650;2023-10-08T02:13:59;97434.19;;;17.66;37.85
16461;BME280;8341;42.048;24.650;2023-10-08T02:16:27;97434.25;;;17.61;38.19
16461;BME280;8341;42.048;24.650;2023-10-08T02:18:54;97426.94;;;17.63;37.92
16461;BME280;8341;42.048;24.650;2023-10-08T02:21:21;97427.22;;;17.60;37.89
16461;BME280;8341;42.048;24.650;2023-10-08T02:23:47;97424.38;;;17.71;37.58
16461;BME280;8341;42.048;24.650;2023-10-08T02:26:14;97427.66;;;17.69;37.50
16461;BME280;8341;42.048;24.650;2023-10-08T02:28:41;97423.34;;;17.74;37.51
16461;BME280;8341;42.048;24.650;2023-10-08T02:31:09;97421.19;;;17.61;37.44
16461;BME280;8341;42.048;24.650;2023-10-08T02:33:36;97424.97;;;17.58;37.46
16461;BME280;8341;42.048;24.650;2023-10-08T02:36:03;97415.97;;;17.58;37.50
16461;BME280;8341;42.048;24.650;2023-10-08T02:38:30;97422.69;;;17.62;37.51
16461;BME280;8341;42.048;24.650;2023-10-08T02:41:03;97416.13;;;17.65;37.50
16461;BME280;8341;42.048;24.650;2023-10-08T02:43:31;97419.25;;;17.56;37.30
16461;BME280;8341;42.048;24.650;2023-10-08T02:45:59;97412.94;;;17.61;37.44
16461;BME280;8341;42.048;24.650;2023-10-08T02:48:27;97412.00;;;17.53;37.27
16461;BME280;8341;42.048;24.650;2023-10-08T02:50:55;97418.72;;;17.52;37.16
16461;BME280;8341;42.048;24.650;2023-10-08T02:53:33;97411.72;;;17.51;37.22
16461;BME280;8341;42.048;24.650;2023-10-08T02:56:00;97408.22;;;17.50;36.93
16461;BME280;8341;42.048;24.650;2023-10-08T02:58:37;97408.78;;;17.43;37.08
16461;BME280;8341;42.048;24.650;2023-10-08T03:01:04;97413.78;;;17.45;37.11
16461;BME280;8341;42.048;24.650;2023-10-08T03:03:32;97417.06;;;17.43;36.87
16461;BME280;8341;42.048;24.650;2023-10-08T03:05:59;97425.81;;;17.42;36.84
16461;BME280;8341;42.048;24.650;2023-10-08T03:08:28;97424.59;;;17.43;37.12
16461;BME280;8341;42.048;24.650;2023-10-08T03:10:56;97424.34;;;17.41;36.84
16461;BME280;8341;42.048;24.650;2023-10-08T03:13:28;97414.81;;;17.42;36.60
16461;BME280;8341;42.048;24.650;2023-10-08T03:15:55;97420.53;;;17.44;36.26
16461;BME280;8341;42.048;24.650;2023-10-08T03:18:35;97409.84;;;17.35;36.47
16461;BME280;8341;42.048;24.650;2023-10-08T03:21:02;97420.31;;;17.42;36.35
16461;BME280;8341;42.048;24.650;2023-10-08T03:23:30;97416.31;;;17.43;36.29
16461;BME280;8341;42.048;24.650;2023-10-08T03:26:01;97426.63;;;17.37;36.66
16461;BME280;8341;42.048;24.650;2023-10-08T03:28:36;97417.53;;;17.47;36.34
16461;BME280;8341;42.048;24.650;2023-10-08T03:31:03;97424.06;;;17.44;36.00
16461;BME280;8341;42.048;24.650;2023-10-08T03:33:31;97418.25;;;17.54;36.09
16461;BME280;8341;42.048;24.650;2023-10-08T03:36:02;97413.56;;;17.43;35.77
16461;BME280;8341;42.048;24.650;2023-10-08T03:38:36;97414.81;;;17.42;36.46
16461;BME280;8341;42.048;24.650;2023-10-08T03:41:16;97399.72;;;17.48;35.97
16461;BME280;8341;42.048;24.650;2023-10-08T03:43:46;97401.72;;;17.54;35.63
16461;BME280;8341;42.048;24.650;2023-10-08T03:46:21;97391.31;;;17.35;35.85
16461;BME280;8341;42.048;24.650;2023-10-08T03:48:49;97405.97;;;17.49;35.62
16461;BME280;8341;42.048;24.650;2023-10-08T03:51:19;97399.19;;;17.56;35.55
16461;BME280;8341;42.048;24.650;2023-10-08T03:53:47;97392.47;;;17.45;35.76
16461;BME280;8341;42.048;24.650;2023-10-08T03:56:41;97409.25;;;17.47;35.94
16461;BME280;8341;42.048;24.650;2023-10-08T03:59:11;97408.03;;;17.43;35.79
16461;BME280;8341;42.048;24.650;2023-10-08T04:01:40;97408.03;;;17.43;35.20
16461;BME280;8341;42.048;24.650;2023-10-08T04:04:07;97417.56;;;17.42;36.24
16461;BME280;8341;42.048;24.650;2023-10-08T04:06:39;97414.56;;;17.40;35.21
16461;BME280;8341;42.048;24.650;2023-10-08T04:09:13;97419.81;;;17.43;35.44
16461;BME280;8341;42.048;24.650;2023-10-08T04:11:50;97417.78;;;17.44;35.22
16461;BME280;8341;42.048;24.650;2023-10-08T04:14:22;97415.81;;;17.39;35.29
16461;BME280;8341;42.048;24.650;2023-10-08T04:16:49;97421.78;;;17.48;34.90
16461;BME280;8341;42.048;24.650;2023-10-08T04:19:18;97416.22;;;17.54;34.61
16461;BME280;8341;42.048;24.650;2023-10-08T04:21:47;97417.97;;;17.57;34.34
16461;BME280;8341;42.048;24.650;2023-10-08T04:24:20;97426.78;;;17.50;34.27
16461;BME280;8341;42.048;24.650;2023-10-08T04:26:56;97425.03;;;17.52;34.04
16461;BME280;8341;42.048;24.650;2023-10-08T04:29:24;97409.22;;;17.53;33.98
16461;BME280;8341;42.048;24.650;2023-10-08T04:31:51;97421.47;;;17.58;34.31
16461;BME280;8341;42.048;24.650;2023-10-08T04:34:27;97422.97;;;17.59;33.79
16461;BME280;8341;42.048;24.650;2023-10-08T04:36:56;97424.50;;;17.54;33.94
16461;BME280;8341;42.048;24.650;2023-10-08T04:39:26;97422.44;;;17.60;33.78
16461;BME280;8341;42.048;24.650;2023-10-08T04:41:58;97423.63;;;17.70;33.48
16461;BME280;8341;42.048;24.650;2023-10-08T04:44:31;97432.88;;;17.73;33.67
16461;BME280;8341;42.048;24.650;2023-10-08T04:46:59;97423.63;;;17.70;33.24
16461;BME280;8341;42.048;24.650;2023-10-08T04:49:30;97423.22;;;17.85;32.79
16461;BME280;8341;42.048;24.650;2023-10-08T04:52:02;97430.91;;;17.97;32.38
16461;BME280;8341;42.048;24.650;2023-10-08T04:54:34;97437.03;;;18.09;32.95
16461;BME280;8341;42.048;24.650;2023-10-08T04:57:07;97421.03;;;18.26;31.54
16461;BME280;8341;42.048;24.650;2023-10-08T04:59:41;97429.41;;;18.21;32.40
16461;BME280;8341;42.048;24.650;2023-10-08T05:02:08;97427.38;;;18.21;32.65
16461;BME280;8341;42.048;24.650;2023-10-08T05:04:59;97416.63;;;18.18;32.71
16461;BME280;8341;42.048;24.650;2023-10-08T05:07:45;97413.97;;;18.31;32.06
16461;BME280;8341;42.048;24.650;2023-10-08T05:10:32;97414.09;;;18.20;32.62
16461;BME280;8341;42.048;24.650;2023-10-08T05:13:22;97408.75;;;18.27;32.41
16461;BME280;8341;42.048;24.650;2023-10-08T05:15:56;97409.66;;;18.35;32.64
16461;BME280;8341;42.048;24.650;2023-10-08T05:18:31;97412.63;;;18.37;32.35
16461;BME280;8341;42.048;24.650;2023-10-08T05:21:12;97416.31;;;18.45;32.17
16461;BME280;8341;42.048;24.650;2023-10-08T05:23:52;97403.59;;;18.61;31.52
16461;BME280;8341;42.048;24.650;2023-10-08T05:26:39;97414.84;;;18.63;32.06
16461;BME280;8341;42.048;24.650;2023-10-08T05:29:14;97415.75;;;18.71;31.82
16461;BME280;8341;42.048;24.650;2023-10-08T05:32:17;97406.13;;;18.96;31.05
16461;BME280;8341;42.048;24.650;2023-10-08T05:35:05;97414.03;;;19.05;30.59
16461;BME280;8341;42.048;24.650;2023-10-08T05:37:45;97411.16;;;19.11;30.92
16461;BME280;8341;42.048;24.650;2023-10-08T05:40:19;97412.38;;;19.15;30.61
16461;BME280;8341;42.048;24.650;2023-10-08T05:43:08;97413.69;;;19.27;30.07
16461;BME280;8341;42.048;24.650;2023-10-08T05:45:48;97411.00;;;19.41;30.00
16461;BME280;8341;42.048;24.650;2023-10-08T05:48:39;97406.44;;;19.43;29.88
16461;BME280;8341;42.048;24.650;2023-10-08T05:51:10;97396.78;;;19.50;29.47
16461;BME280;8341;42.048;24.650;2023-10-08T05:53:49;97412.13;;;19.64;29.39
16461;BME280;8341;42.048;24.650;2023-10-08T05:56:22;97409.41;;;19.77;29.35
16461;BME280;8341;42.048;24.650;2023-10-08T05:59:07;97408.84;;;19.78;29.50
16461;BME280;8341;42.048;24.650;2023-10-08T06:01:41;97421.56;;;19.87;29.68
16461;BME280;8341;42.048;24.650;2023-10-08T06:04:11;97418.69;;;19.92;29.15
16461;BME280;8341;42.048;24.650;2023-10-08T06:06:56;97422.84;;;19.99;28.93
16461;BME280;8341;42.048;24.650;2023-10-08T06:09:37;97412.41;;;20.18;28.50
16461;BME280;8341;42.048;24.650;2023-10-08T06:12:06;97404.31;;;20.20;28.61
16461;BME280;8341;42.048;24.650;2023-10-08T06:14:36;97404.34;;;20.33;28.54
16461;BME280;8341;42.048;24.650;2023-10-08T06:17:19;97406.16;;;20.31;28.44
16461;BME280;8341;42.048;24.650;2023-10-08T06:20:00;97402.84;;;20.32;28.34
16461;BME280;8341;42.048;24.650;2023-10-08T06:22:35;97403.03;;;20.47;28.60
16461;BME280;8341;42.048;24.650;2023-10-08T06:25:01;97405.69;;;20.53;28.22
16461;BME280;8341;42.048;24.650;2023-10-08T06:27:44;97406.47;;;20.53;28.36
16461;BME280;8341;42.048;24.650;2023-10-08T06:30:12;97403.56;;;20.72;28.80
16461;BME280;8341;42.048;24.650;2023-10-08T06:32:43;97400.03;;;20.72;28.48
16461;BME280;8341;42.048;24.650;2023-10-08T06:35:11;97392.22;;;20.70;28.82
16461;BME280;8341;42.048;24.650;2023-10-08T06:37:43;97395.94;;;20.86;28.16
16461;BME280;8341;42.048;24.650;2023-10-08T06:40:11;97393.47;;;20.95;28.18
16461;BME280;8341;42.048;24.650;2023-10-08T06:43:00;97391.41;;;20.96;28.75
16461;BME280;8341;42.048;24.650;2023-10-08T06:45:37;97392.78;;;21.15;28.13
16461;BME280;8341;42.048;24.650;2023-10-08T06:48:05;97398.41;;;21.23;28.32
16461;BME280;8341;42.048;24.650;2023-10-08T06:50:35;97394.44;;;21.18;28.51
16461;BME280;8341;42.048;24.650;2023-10-08T06:53:03;97404.34;;;21.27;28.41
16461;BME280;8341;42.048;24.650;2023-10-08T06:55:33;97404.47;;;21.42;28.32
16461;BME280;8341;42.048;24.650;2023-10-08T06:58:03;97403.34;;;21.58;28.24
16461;BME280;8341;42.048;24.650;2023-10-08T07:00:34;97405.84;;;21.69;28.59
16461;BME280;8341;42.048;24.650;2023-10-08T07:03:06;97397.03;;;21.78;27.59
16461;BME280;8341;42.048;24.650;2023-10-08T07:05:35;97388.09;;;21.72;27.60
16461;BME280;8341;42.048;24.650;2023-10-08T07:08:09;97399.75;;;21.92;27.26
16461;BME280;8341;42.048;24.650;2023-10-08T07:10:39;97399.03;;;21.99;27.85
16461;BME280;8341;42.048;24.650;2023-10-08T07:13:08;97387.56;;;21.95;27.61
16461;BME280;8341;42.048;24.650;2023-10-08T07:15:35;97395.78;;;22.08;27.82
16461;BME280;8341;42.048;24.650;2023-10-08T07:18:05;97391.06;;;22.23;27.73
16461;BME280;8341;42.048;24.650;2023-10-08T07:20:39;97389.59;;;22.30;27.69
16461;BME280;8341;42.048;24.650;2023-10-08T07:23:07;97384.59;;;22.28;27.59
16461;BME280;8341;42.048;24.650;2023-10-08T07:25:51;97391.84;;;22.31;27.85
16461;BME280;8341;42.048;24.650;2023-10-08T07:28:20;97382.38;;;22.27;28.05
16461;BME280;8341;42.048;24.650;2023-10-08T07:30:47;97378.19;;;22.41;27.64
16461;BME280;8341;42.048;24.650;2023-10-08T07:33:15;97382.88;;;22.54;27.59
16461;BME280;8341;42.048;24.650;2023-10-08T07:35:45;97376.72;;;22.48;27.80
16461;BME280;8341;42.048;24.650;2023-10-08T07:38:20;97378.94;;;22.41;28.05
16461;BME280;8341;42.048;24.650;2023-10-08T07:40:48;97376.00;;;22.55;28.31
16461;BME280;8341;42.048;24.650;2023-10-08T07:43:15;97389.09;;;22.67;28.65
16461;BME280;8341;42.048;24.650;2023-10-08T07:45:47;97383.34;;;22.80;27.67
16461;BME280;8341;42.048;24.650;2023-10-08T07:48:14;97381.31;;;22.73;27.90
16461;BME280;8341;42.048;24.650;2023-10-08T07:50:44;97383.94;;;22.86;27.51
16461;BME280;8341;42.048;24.650;2023-10-08T07:53:12;97393.97;;;22.89;27.86
16461;BME280;8341;42.048;24.650;2023-10-08T07:55:45;97386.19;;;22.88;28.43
16461;BME280;8341;42.048;24.650;2023-10-08T07:58:14;97386.34;;;22.82;27.87
16461;BME280;8341;42.048;24.650;2023-10-08T08:00:42;97368.91;;;22.82;27.52
16461;BME280;8341;42.048;24.650;2023-10-08T08:03:19;97382.44;;;22.78;27.92
16461;BME280;8341;42.048;24.650;2023-10-08T08:05:46;97376.53;;;22.81;27.92
16461;BME280;8341;42.048;24.650;2023-10-08T08:08:14;97377.31;;;22.97;27.31
16461;BME280;8341;42.048;24.650;2023-10-08T08:10:44;97379.03;;;23.15;28.23
16461;BME280;8341;42.048;24.650;2023-10-08T08:13:11;97372.88;;;23.17;27.83
16461;BME280;8341;42.048;24.650;2023-10-08T08:15:39;97363.63;;;23.22;27.34
16461;BME280;8341;42.048;24.650;2023-10-08T08:18:10;97367.00;;;23.43;27.42
16461;BME280;8341;42.048;24.650;2023-10-08T08:20:49;97370.72;;;23.53;27.24
16461;BME280;8341;42.048;24.650;2023-10-08T08:23:16;97364.22;;;23.43;27.02
16461;BME280;8341;42.048;24.650;2023-10-08T08:25:43;97349.59;;;23.65;27.25
16461;BME280;8341;42.048;24.650;2023-10-08T08:28:21;97352.53;;;23.82;27.39
16461;BME280;8341;42.048;24.650;2023-10-08T08:30:50;97359.59;;;23.91;26.95
16461;BME280;8341;42.048;24.650;2023-10-08T08:33:18;97366.28;;;23.88;26.33
16461;BME280;8341;42.048;24.650;2023-10-08T08:35:57;97350.88;;;23.79;26.70
16461;BME280;8341;42.048;24.650;2023-10-08T08:38:24;97362.53;;;24.00;26.75
16461;BME280;8341;42.048;24.650;2023-10-08T08:40:50;97348.78;;;24.02;27.19
16461;BME280;8341;42.048;24.650;2023-10-08T08:43:19;97352.88;;;23.86;26.95
16461;BME280;8341;42.048;24.650;2023-10-08T08:45:46;97350.47;;;23.90;26.76
16461;BME280;8341;42.048;24.650;2023-10-08T08:48:16;97343.97;;;23.95;26.78
16461;BME280;8341;42.048;24.650;2023-10-08T08:50:45;97355.44;;;24.07;26.29
16461;BME280;8341;42.048;24.650;2023-10-08T08:53:14;97354.91;;;24.16;26.75
16461;BME280;8341;42.048;24.650;2023-10-08T08:55:41;97343.00;;;24.23;26.48
16461;BME280;8341;42.048;24.650;2023-10-08T08:58:09;97348.78;;;24.02;27.20
16461;BME280;8341;42.048;24.650;2023-10-08T09:00:37;97351.91;;;24.06;26.70
16461;BME280;8341;42.048;24.650;2023-10-08T09:03:06;97344.66;;;24.26;26.61
16461;BME280;8341;42.048;24.650;2023-10-08T09:05:33;97339.09;;;24.26;26.76
16461;BME280;8341;42.048;24.650;2023-10-08T09:08:01;97339.59;;;24.40;26.91
16461;BME280;8341;42.048;24.650;2023-10-08T09:10:32;97345.16;;;24.47;26.71
16461;BME280;8341;42.048;24.650;2023-10-08T09:13:03;97336.28;;;24.34;27.54
16461;BME280;8341;42.048;24.650;2023-10-08T09:15:30;97320.97;;;24.50;26.44
16461;BME280;8341;42.048;24.650;2023-10-08T09:17:59;97330.41;;;24.62;27.15
16461;BME280;8341;42.048;24.650;2023-10-08T09:20:27;97321.41;;;24.78;25.97
16461;BME280;8341;42.048;24.650;2023-10-08T09:23:09;97334.34;;;24.91;26.29
16461;BME280;8341;42.048;24.650;2023-10-08T09:25:39;97318.31;;;24.99;26.15
16461;BME280;8341;42.048;24.650;2023-10-08T09:28:06;97318.03;;;25.12;27.12
16461;BME280;8341;42.048;24.650;2023-10-08T09:42:33;97298.56;;;25.54;26.26
16461;BME280;8341;42.048;24.650;2023-10-08T09:45:01;97291.59;;;25.38;26.89
16461;BME280;8341;42.048;24.650;2023-10-08T09:47:36;97301.50;;;25.56;26.09
16461;BME280;8341;42.048;24.650;2023-10-08T09:50:05;97302.88;;;25.47;26.53
16461;BME280;8341;42.048;24.650;2023-10-08T09:52:41;97299.91;;;25.70;26.91
16461;BME280;8341;42.048;24.650;2023-10-08T09:55:10;97278.44;;;25.56;26.50
16461;BME280;8341;42.048;24.650;2023-10-08T09:57:38;97289.13;;;25.67;26.55
16461;BME280;8341;42.048;24.650;2023-10-08T10:00:06;97273.59;;;25.73;27.07
16461;BME280;8341;42.048;24.650;2023-10-08T10:02:40;97277.28;;;25.76;27.03
16461;BME280;8341;42.048;24.650;2023-10-08T10:05:10;97281.56;;;25.94;26.81
16461;BME280;8341;42.048;24.650;2023-10-08T10:07:40;97261.13;;;25.57;27.18
16461;BME280;8341;42.048;24.650;2023-10-08T10:10:27;97269.75;;;25.69;26.95
16461;BME280;8341;42.048;24.650;2023-10-08T10:13:02;97258.41;;;25.67;27.43
16461;BME280;8341;42.048;24.650;2023-10-08T10:15:31;97253.25;;;25.80;27.16
16461;BME280;8341;42.048;24.650;2023-10-08T10:18:08;97254.47;;;25.70;27.32
16461;BME280;8341;42.048;24.650;2023-10-08T10:20:39;97265.97;;;26.08;26.14
16461;BME280;8341;42.048;24.650;2023-10-08T10:23:37;97245.09;;;26.26;26.67
16461;BME280;8341;42.048;24.650;2023-10-08T10:26:06;97243.25;;;26.38;26.20
16461;BME280;8341;42.048;24.650;2023-10-08T10:31:50;97236.56;;;26.51;26.63
16461;BME280;8341;42.048;24.650;2023-10-08T10:34:21;97237.78;;;26.57;26.88
16461;BME280;8341;42.048;24.650;2023-10-08T10:36:50;97235.81;;;26.50;26.57
16461;BME280;8341;42.048;24.650;2023-10-08T10:39:22;97223.81;;;26.40;26.72
16461;BME280;8341;42.048;24.650;2023-10-08T10:41:53;97223.63;;;26.55;26.46
16461;BME280;8341;42.048;24.650;2023-10-08T10:44:23;97217.38;;;26.74;25.92
16461;BME280;8341;42.048;24.650;2023-10-08T10:46:51;97221.19;;;26.69;26.91
16461;BME280;8341;42.048;24.650;2023-10-08T10:49:38;97221.31;;;26.61;26.45
16461;BME280;8341;42.048;24.650;2023-10-08T10:52:13;97212.13;;;26.78;26.34
16461;BME280;8341;42.048;24.650;2023-10-08T10:54:43;97209.22;;;26.86;26.68
16461;BME280;8341;42.048;24.650;2023-10-08T10:57:24;97196.84;;;26.89;26.01
16461;BME280;8341;42.048;24.650;2023-10-08T11:00:02;97197.63;;;26.99;26.70
16461;BME280;8341;42.048;24.650;2023-10-08T11:02:45;97184.41;;;27.09;26.69
16461;BME280;8341;42.048;24.650;2023-10-08T11:05:15;97186.47;;;27.18;26.35
16461;BME280;8341;42.048;24.650;2023-10-08T11:07:46;97185.44;;;27.13;26.05
16461;BME280;8341;42.048;24.650;2023-10-08T11:10:13;97178.13;;;27.37;25.93
16461;BME280;8341;42.048;24.650;2023-10-08T11:12:41;97189.50;;;27.39;26.51
16461;BME280;8341;42.048;24.650;2023-10-08T11:15:12;97178.88;;;27.47;26.10
16461;BME280;8341;42.048;24.650;2023-10-08T11:17:45;97166.41;;;27.12;26.29
16461;BME280;8341;42.048;24.650;2023-10-08T11:20:25;97170.13;;;27.33;26.66
16461;BME280;8341;42.048;24.650;2023-10-08T11:22:52;97169.28;;;27.41;26.04
16461;BME280;8341;42.048;24.650;2023-10-08T11:25:21;97171.78;;;27.56;25.34
16461;BME280;8341;42.048;24.650;2023-10-08T11:27:53;97177.41;;;27.46;26.44
16461;BME280;8341;42.048;24.650;2023-10-08T11:30:27;97185.06;;;27.46;26.58
16461;BME280;8341;42.048;24.650;2023-10-08T11:32:57;97184.78;;;27.51;25.98
16461;BME280;8341;42.048;24.650;2023-10-08T11:35:25;97189.66;;;27.60;26.20
16461;BME280;8341;42.048;24.650;2023-10-08T11:37:57;97184.47;;;27.66;26.31
16461;BME280;8341;42.048;24.650;2023-10-08T11:40:27;97169.75;;;27.56;26.75
16461;BME280;8341;42.048;24.650;2023-10-08T11:42:55;97169.31;;;27.50;26.32
16461;BME280;8341;42.048;24.650;2023-10-08T11:45:24;97166.16;;;27.27;26.57
16461;BME280;8341;42.048;24.650;2023-10-08T11:47:52;97161.78;;;27.43;25.59
16461;BME280;8341;42.048;24.650;2023-10-08T11:50:26;97150.41;;;27.31;26.09
16461;BME280;8341;42.048;24.650;2023-10-08T11:53:00;97155.50;;;27.06;26.45
16461;BME280;8341;42.048;24.650;2023-10-08T11:55:29;97149.19;;;27.25;26.96
16461;BME280;8341;42.048;24.650;2023-10-08T11:57:59;97143.31;;;27.30;26.62
16461;BME280;8341;42.048;24.650;2023-10-08T12:00:27;97156.94;;;27.63;26.10
16461;BME280;8341;42.048;24.650;2023-10-08T12:02:53;97148.50;;;27.72;26.92
16461;BME280;8341;42.048;24.650;2023-10-08T12:05:21;97141.44;;;27.52;26.65
16461;BME280;8341;42.048;24.650;2023-10-08T18:03:50;97280.53;;;23.33;33.95
16461;BME280;8341;42.048;24.650;2023-10-08T18:06:18;97290.91;;;23.33;33.74
16461;BME280;8341;42.048;24.650;2023-10-08T18:08:46;97290.56;;;23.29;33.89
16461;BME280;8341;42.048;24.650;2023-10-08T18:11:15;97286.63;;;23.32;33.78
16461;BME280;8341;42.048;24.650;2023-10-08T18:13:43;97287.56;;;23.27;34.14
16461;BME280;8341;42.048;24.650;2023-10-08T18:16:12;97291.66;;;23.26;34.20
16461;BME280;8341;42.048;24.650;2023-10-08T18:18:41;97285.00;;;23.29;34.16
16461;BME280;8341;42.048;24.650;2023-10-08T18:21:11;97290.72;;;23.31;34.13
16461;BME280;8341;42.048;24.650;2023-10-08T18:23:41;97291.28;;;23.22;34.32
16461;BME280;8341;42.048;24.650;2023-10-08T18:26:07;97291.28;;;23.22;34.35
16461;BME280;8341;42.048;24.650;2023-10-08T18:28:35;97292.41;;;23.19;34.39
16461;BME280;8341;42.048;24.650;2023-10-08T18:31:03;97294.44;;;23.18;34.21
16461;BME280;8341;42.048;24.650;2023-10-08T18:33:32;97298.16;;;23.21;34.54
16461;BME280;8341;42.048;24.650;2023-10-08T18:36:04;97304.66;;;23.08;34.98
16461;BME280;8341;42.048;24.650;2023-10-08T18:38:32;97288.13;;;23.10;34.91
16461;BME280;8341;42.048;24.650;2023-10-08T18:41:00;97295.38;;;23.05;35.06
16461;BME280;8341;42.048;24.650;2023-10-08T18:43:28;97304.25;;;23.04;35.06
16461;BME280;8341;42.048;24.650;2023-10-08T18:45:56;97302.22;;;23.12;35.11
16461;BME280;8341;42.048;24.650;2023-10-08T18:48:23;97303.16;;;23.15;34.89
16461;BME280;8341;42.048;24.650;2023-10-08T18:50:51;97302.41;;;23.06;35.22
16461;BME280;8341;42.048;24.650;2023-10-08T18:53:19;97309.06;;;23.03;35.24
16461;BME280;8341;42.048;24.650;2023-10-08T18:55:47;97303.91;;;23.08;35.41
16461;BME280;8341;42.048;24.650;2023-10-08T18:58:16;97317.06;;;23.07;35.40
16461;BME280;8341;42.048;24.650;2023-10-08T19:00:43;97309.06;;;23.03;35.64
16461;BME280;8341;42.048;24.650;2023-10-08T19:03:10;97317.63;;;23.05;35.88
16461;BME280;8341;42.048;24.650;2023-10-08T19:05:38;97322.06;;;23.08;35.80
16461;BME280;8341;42.048;24.650;2023-10-08T19:08:05;97325.38;;;22.84;36.37
16461;BME280;8341;42.048;24.650;2023-10-08T19:10:33;97324.81;;;22.93;36.08
16461;BME280;8341;42.048;24.650;2023-10-08T19:13:02;97328.50;;;22.81;36.59
16461;BME280;8341;42.048;24.650;2023-10-08T19:15:30;97333.88;;;22.79;36.73
16461;BME280;8341;42.048;24.650;2023-10-08T19:17:57;97333.69;;;22.77;36.91
16461;BME280;8341;42.048;24.650;2023-10-08T19:20:30;97326.78;;;22.70;36.91
16461;BME280;8341;42.048;24.650;2023-10-08T19:22:57;97338.28;;;22.67;37.42
16461;BME280;8341;42.048;24.650;2023-10-08T19:25:23;97338.28;;;22.67;37.67
16461;BME280;8341;42.048;24.650;2023-10-08T19:27:50;97348.28;;;22.62;37.85
16461;BME280;8341;42.048;24.650;2023-10-08T19:30:19;97346.41;;;22.57;38.36
16461;BME280;8341;42.048;24.650;2023-10-08T19:32:47;97344.34;;;22.58;38.29